sensor_id;sensor_type;location;lat;lon;timestamp;P1;durP1;ratioP1;P2;durP2;ratioP2
36497;SDS011;22513;51.222;6.480;2024-01-30T00:02:15;0.98;;;0.88;;
36497;SDS011;22513;51.222;6.480;2024-01-30T00:04:41;1.02;;;0.90;;
36497;SDS011;22513;51.222;6.480;2024-01-30T00:07:07;0.95;;;0.90;;
36497;SDS011;22513;51.222;6.480;2024-01-30T00:09:33;0.90;;;0.90;;
36497;SDS011;22513;51.222;6.480;2024-01-30T00:11:58;1.30;;;0.90;;
36497;SDS011;22513;51.222;6.480;2024-01-30T00:14:24;1.05;;;0.95;;
36497;SDS011;22513;51.222;6.480;2024-01-30T00:16:50;0.90;;;0.90;;
36497;SDS011;22513;51.222;6.480;2024-01-30T00:19:17;1.20;;;1.10;;
36497;SDS011;22513;51.222;6.480;2024-01-30T00:21:43;1.17;;;1.08;;
36497;SDS011;22513;51.222;6.480;2024-01-30T00:24:08;1.05;;;0.95;;
36497;SDS011;22513;51.222;6.480;2024-01-30T00:26:34;1.00;;;0.90;;
36497;SDS011;22513;51.222;6.480;2024-01-30T00:29:00;1.13;;;1.00;;
36497;SDS011;22513;51.222;6.480;2024-01-30T00:31:25;0.95;;;0.90;;
36497;SDS011;22513;51.222;6.480;2024-01-30T00:33:51;0.80;;;0.80;;
36497;SDS011;22513;51.222;6.480;2024-01-30T00:36:17;1.58;;;1.10;;
36497;SDS011;22513;51.222;6.480;2024-01-30T00:38:42;1.40;;;1.00;;
36497;SDS011;22513;51.222;6.480;2024-01-30T00:41:08;1.77;;;0.88;;
36497;SDS011;22513;51.222;6.480;2024-01-30T00:43:34;0.98;;;0.98;;
36497;SDS011;22513;51.222;6.480;2024-01-30T00:46:00;1.10;;;1.00;;
36497;SDS011;22513;51.222;6.480;2024-01-30T00:50:54;1.30;;;1.20;;
36497;SDS011;22513;51.222;6.480;2024-01-30T00:53:20;1.17;;;1.08;;
36497;SDS011;22513;51.222;6.480;2024-01-30T00:55:46;0.80;;;0.80;;
36497;SDS011;22513;51.222;6.480;2024-01-30T00:58:11;1.33;;;1.02;;
36497;SDS011;22513;51.222;6.480;2024-01-30T01:00:37;0.80;;;0.80;;
36497;SDS011;22513;51.222;6.480;2024-01-30T01:03:03;1.08;;;1.00;;
36497;SDS011;22513;51.222;6.480;2024-01-30T01:05:29;0.80;;;0.80;;
36497;SDS011;22513;51.222;6.480;2024-01-30T01:07:54;1.13;;;1.00;;
36497;SDS011;22513;51.222;6.480;2024-01-30T01:10:20;1.17;;;1.08;;
36497;SDS011;22513;51.222;6.480;2024-01-30T01:12:45;1.13;;;1.02;;
36497;SDS011;22513;51.222;6.480;2024-01-30T01:15:11;0.90;;;0.85;;
36497;SDS011;22513;51.222;6.480;2024-01-30T01:17:37;1.02;;;0.90;;
36497;SDS011;22513;51.222;6.480;2024-01-30T01:20:04;1.00;;;0.90;;
36497;SDS011;22513;51.222;6.480;2024-01-30T01:22:31;1.08;;;1.00;;
36497;SDS011;22513;51.222;6.480;2024-01-30T01:24:57;0.98;;;0.80;;
36497;SDS011;22513;51.222;6.480;2024-01-30T01:27:24;0.80;;;0.80;;
36497;SDS011;22513;51.222;6.480;2024-01-30T01:29:50;1.55;;;1.20;;
36497;SDS011;22513;51.222;6.480;2024-01-30T01:32:15;1.20;;;1.00;;
36497;SDS011;22513;51.222;6.480;2024-01-30T01:34:41;0.90;;;0.90;;
36497;SDS011;22513;51.222;6.480;2024-01-30T01:37:07;1.10;;;1.00;;
36497;SDS011;22513;51.222;6.480;2024-01-30T01:39:32;1.45;;;1.20;;
36497;SDS011;22513;51.222;6.480;2024-01-30T01:41:58;0.80;;;0.80;;
36497;SDS011;22513;51.222;6.480;2024-01-30T01:44:24;1.20;;;1.10;;
36497;SDS011;22513;51.222;6.480;2024-01-30T01:46:49;1.20;;;1.10;;
36497;SDS011;22513;51.222;6.480;2024-01-30T01:49:17;1.15;;;1.00;;
36497;SDS011;22513;51.222;6.480;2024-01-30T01:51:44;0.88;;;0.88;;
36497;SDS011;22513;51.222;6.480;2024-01-30T01:54:12;1.10;;;1.00;;
36497;SDS011;22513;51.222;6.480;2024-01-30T01:56:39;0.80;;;0.80;;
36497;SDS011;22513;51.222;6.480;2024-01-30T01:59:06;1.05;;;0.95;;
36497;SDS011;22513;51.222;6.480;2024-01-30T02:01:33;1.17;;;1.08;;
36497;SDS011;22513;51.222;6.480;2024-01-30T02:04:00;1.25;;;1.05;;
36497;SDS011;22513;51.222;6.480;2024-01-30T02:06:26;0.93;;;0.90;;
36497;SDS011;22513;51.222;6.480;2024-01-30T02:08:52;1.35;;;1.00;;
36497;SDS011;22513;51.222;6.480;2024-01-30T02:11:18;1.30;;;1.10;;
36497;SDS011;22513;51.222;6.480;2024-01-30T02:13:45;0.95;;;0.90;;
36497;SDS011;22513;51.222;6.480;2024-01-30T02:16:10;1.05;;;0.95;;
36497;SDS011;22513;51.222;6.480;2024-01-30T02:18:36;1.10;;;1.00;;
36497;SDS011;22513;51.222;6.480;2024-01-30T02:21:07;1.00;;;0.90;;
36497;SDS011;22513;51.222;6.480;2024-01-30T02:23:32;1.17;;;1.08;;
36497;SDS011;22513;51.222;6.480;2024-01-30T02:25:59;1.58;;;1.15;;
36497;SDS011;22513;51.222;6.480;2024-01-30T02:28:25;1.10;;;1.08;;
36497;SDS011;22513;51.222;6.480;2024-01-30T02:30:53;1.15;;;1.05;;
36497;SDS011;22513;51.222;6.480;2024-01-30T02:33:19;1.27;;;1.17;;
36497;SDS011;22513;51.222;6.480;2024-01-30T02:35:46;1.17;;;1.02;;
36497;SDS011;22513;51.222;6.480;2024-01-30T02:38:12;1.20;;;1.10;;
36497;SDS011;22513;51.222;6.480;2024-01-30T02:40:38;1.00;;;0.88;;
36497;SDS011;22513;51.222;6.480;2024-01-30T02:43:04;1.70;;;1.15;;
36497;SDS011;22513;51.222;6.480;2024-01-30T02:45:29;0.90;;;0.90;;
36497;SDS011;22513;51.222;6.480;2024-01-30T02:47:55;1.80;;;1.23;;
36497;SDS011;22513;51.222;6.480;2024-01-30T02:50:21;0.93;;;0.93;;
36497;SDS011;22513;51.222;6.480;2024-01-30T02:52:46;1.65;;;1.20;;
36497;SDS011;22513;51.222;6.480;2024-01-30T02:55:12;1.48;;;1.00;;
36497;SDS011;22513;51.222;6.480;2024-01-30T02:57:38;1.23;;;1.00;;
36497;SDS011;22513;51.222;6.480;2024-01-30T03:00:04;1.38;;;1.10;;
36497;SDS011;22513;51.222;6.480;2024-01-30T03:02:31;1.60;;;1.13;;
36497;SDS011;22513;51.222;6.480;2024-01-30T03:04:58;0.95;;;0.95;;
36497;SDS011;22513;51.222;6.480;2024-01-30T03:07:24;1.10;;;1.00;;
36497;SDS011;22513;51.222;6.480;2024-01-30T03:09:50;1.00;;;0.90;;
36497;SDS011;22513;51.222;6.480;2024-01-30T03:12:15;1.17;;;1.08;;
36497;SDS011;22513;51.222;6.480;2024-01-30T03:14:41;1.08;;;0.98;;
36497;SDS011;22513;51.222;6.480;2024-01-30T03:17:07;1.27;;;1.13;;
36497;SDS011;22513;51.222;6.480;2024-01-30T03:19:32;1.00;;;0.90;;
36497;SDS011;22513;51.222;6.480;2024-01-30T03:21:58;1.35;;;1.20;;
36497;SDS011;22513;51.222;6.480;2024-01-30T03:24:24;1.20;;;1.00;;
36497;SDS011;22513;51.222;6.480;2024-01-30T03:26:50;0.95;;;0.85;;
36497;SDS011;22513;51.222;6.480;2024-01-30T03:29:15;1.20;;;1.10;;
36497;SDS011;22513;51.222;6.480;2024-01-30T03:31:41;1.13;;;1.02;;
36497;SDS011;22513;51.222;6.480;2024-01-30T03:34:06;1.10;;;1.00;;
36497;SDS011;22513;51.222;6.480;2024-01-30T03:36:32;1.23;;;1.13;;
36497;SDS011;22513;51.222;6.480;2024-01-30T03:38:59;1.23;;;1.08;;
36497;SDS011;22513;51.222;6.480;2024-01-30T03:41:25;1.25;;;1.10;;
36497;SDS011;22513;51.222;6.480;2024-01-30T03:43:51;1.00;;;0.90;;
36497;SDS011;22513;51.222;6.480;2024-01-30T03:46:16;1.30;;;1.10;;
36497;SDS011;22513;51.222;6.480;2024-01-30T03:48:42;1.00;;;0.90;;
36497;SDS011;22513;51.222;6.480;2024-01-30T03:51:07;1.15;;;1.05;;
36497;SDS011;22513;51.222;6.480;2024-01-30T03:53:34;1.10;;;1.00;;
36497;SDS011;22513;51.222;6.480;2024-01-30T03:56:00;1.75;;;1.30;;
36497;SDS011;22513;51.222;6.480;2024-01-30T03:58:26;1.40;;;1.30;;
36497;SDS011;22513;51.222;6.480;2024-01-30T04:00:51;1.10;;;1.00;;
36497;SDS011;22513;51.222;6.480;2024-01-30T04:03:17;1.23;;;1.13;;
36497;SDS011;22513;51.222;6.480;2024-01-30T04:05:42;1.25;;;1.10;;
36497;SDS011;22513;51.222;6.480;2024-01-30T04:08:09;1.15;;;1.02;;
36497;SDS011;22513;51.222;6.480;2024-01-30T04:10:34;1.45;;;1.13;;
36497;SDS011;22513;51.222;6.480;2024-01-30T04:13:00;1.17;;;1.08;;
36497;SDS011;22513;51.222;6.480;2024-01-30T04:15:26;0.93;;;0.93;;
36497;SDS011;22513;51.222;6.480;2024-01-30T04:17:52;1.67;;;1.30;;
36497;SDS011;22513;51.222;6.480;2024-01-30T04:20:17;1.27;;;1.10;;
36497;SDS011;22513;51.222;6.480;2024-01-30T04:22:44;1.10;;;1.00;;
36497;SDS011;22513;51.222;6.480;2024-01-30T04:25:10;1.40;;;1.20;;
36497;SDS011;22513;51.222;6.480;2024-01-30T04:27:36;1.30;;;1.20;;
36497;SDS011;22513;51.222;6.480;2024-01-30T04:30:01;1.02;;;0.93;;
36497;SDS011;22513;51.222;6.480;2024-01-30T04:32:27;1.25;;;1.05;;
36497;SDS011;22513;51.222;6.480;2024-01-30T04:34:53;1.27;;;1.17;;
36497;SDS011;22513;51.222;6.480;2024-01-30T04:37:18;1.45;;;1.20;;
36497;SDS011;22513;51.222;6.480;2024-01-30T04:39:44;1.40;;;1.30;;
36497;SDS011;22513;51.222;6.480;2024-01-30T04:42:09;1.35;;;1.10;;
36497;SDS011;22513;51.222;6.480;2024-01-30T04:44:35;1.20;;;1.10;;
36497;SDS011;22513;51.222;6.480;2024-01-30T04:47:01;1.50;;;1.30;;
36497;SDS011;22513;51.222;6.480;2024-01-30T04:49:26;1.42;;;1.20;;
36497;SDS011;22513;51.222;6.480;2024-01-30T04:51:54;1.80;;;1.20;;
36497;SDS011;22513;51.222;6.480;2024-01-30T04:54:19;1.33;;;1.10;;
36497;SDS011;22513;51.222;6.480;2024-01-30T04:56:45;1.23;;;1.02;;
36497;SDS011;22513;51.222;6.480;2024-01-30T04:59:11;1.60;;;1.17;;
36497;SDS011;22513;51.222;6.480;2024-01-30T05:01:37;1.38;;;1.27;;
36497;SDS011;22513;51.222;6.480;2024-01-30T05:04:02;1.02;;;0.90;;
36497;SDS011;22513;51.222;6.480;2024-01-30T05:06:28;1.15;;;1.02;;
36497;SDS011;22513;51.222;6.480;2024-01-30T05:08:54;0.93;;;0.93;;
36497;SDS011;22513;51.222;6.480;2024-01-30T05:11:20;1.20;;;1.10;;
36497;SDS011;22513;51.222;6.480;2024-01-30T05:13:46;1.20;;;1.10;;
36497;SDS011;22513;51.222;6.480;2024-01-30T05:16:11;0.90;;;0.90;;
36497;SDS011;22513;51.222;6.480;2024-01-30T05:18:37;1.15;;;1.10;;
36497;SDS011;22513;51.222;6.480;2024-01-30T05:21:03;1.25;;;0.90;;
36497;SDS011;22513;51.222;6.480;2024-01-30T05:23:28;0.82;;;0.80;;
36497;SDS011;22513;51.222;6.480;2024-01-30T05:25:54;1.10;;;1.02;;
36497;SDS011;22513;51.222;6.480;2024-01-30T05:28:19;1.10;;;1.00;;
36497;SDS011;22513;51.222;6.480;2024-01-30T05:30:45;1.02;;;0.95;;
36497;SDS011;22513;51.222;6.480;2024-01-30T05:33:11;0.80;;;0.80;;
36497;SDS011;22513;51.222;6.480;2024-01-30T05:35:37;1.00;;;0.88;;
36497;SDS011;22513;51.222;6.480;2024-01-30T05:38:03;1.25;;;1.10;;
36497;SDS011;22513;51.222;6.480;2024-01-30T05:40:29;1.08;;;1.08;;
36497;SDS011;22513;51.222;6.480;2024-01-30T05:42:55;0.90;;;0.90;;
36497;SDS011;22513;51.222;6.480;2024-01-30T05:45:21;0.80;;;0.80;;
36497;SDS011;22513;51.222;6.480;2024-01-30T05:47:48;0.85;;;0.80;;
36497;SDS011;22513;51.222;6.480;2024-01-30T05:50:14;0.90;;;0.90;;
36497;SDS011;22513;51.222;6.480;2024-01-30T05:52:39;0.80;;;0.80;;
36497;SDS011;22513;51.222;6.480;2024-01-30T05:55:05;1.02;;;0.90;;
36497;SDS011;22513;51.222;6.480;2024-01-30T05:57:31;1.05;;;0.90;;
36497;SDS011;22513;51.222;6.480;2024-01-30T05:59:57;0.70;;;0.70;;
36497;SDS011;22513;51.222;6.480;2024-01-30T06:02:22;0.80;;;0.80;;
36497;SDS011;22513;51.222;6.480;2024-01-30T06:04:48;0.90;;;0.90;;
36497;SDS011;22513;51.222;6.480;2024-01-30T06:07:13;0.68;;;0.68;;
36497;SDS011;22513;51.222;6.480;2024-01-30T06:09:39;0.70;;;0.70;;
36497;SDS011;22513;51.222;6.480;2024-01-30T06:12:05;0.93;;;0.93;;
36497;SDS011;22513;51.222;6.480;2024-01-30T06:14:31;0.77;;;0.70;;
36497;SDS011;22513;51.222;6.480;2024-01-30T06:16:58;0.90;;;0.90;;
36497;SDS011;22513;51.222;6.480;2024-01-30T06:19:24;0.73;;;0.73;;
36497;SDS011;22513;51.222;6.480;2024-01-30T06:21:50;0.80;;;0.80;;
36497;SDS011;22513;51.222;6.480;2024-01-30T06:24:15;1.02;;;0.80;;
36497;SDS011;22513;51.222;6.480;2024-01-30T06:26:42;0.80;;;0.80;;
36497;SDS011;22513;51.222;6.480;2024-01-30T06:29:07;0.73;;;0.73;;
36497;SDS011;22513;51.222;6.480;2024-01-30T06:31:33;0.80;;;0.77;;
36497;SDS011;22513;51.222;6.480;2024-01-30T06:34:05;0.60;;;0.60;;
36497;SDS011;22513;51.222;6.480;2024-01-30T06:36:31;0.77;;;0.75;;
36497;SDS011;22513;51.222;6.480;2024-01-30T06:38:56;0.63;;;0.63;;
36497;SDS011;22513;51.222;6.480;2024-01-30T06:41:22;1.00;;;0.82;;
36497;SDS011;22513;51.222;6.480;2024-01-30T06:43:47;0.70;;;0.70;;
36497;SDS011;22513;51.222;6.480;2024-01-30T06:46:13;0.68;;;0.68;;
36497;SDS011;22513;51.222;6.480;2024-01-30T06:48:39;0.73;;;0.73;;
36497;SDS011;22513;51.222;6.480;2024-01-30T06:51:05;0.50;;;0.50;;
36497;SDS011;22513;51.222;6.480;2024-01-30T06:53:31;0.75;;;0.75;;
36497;SDS011;22513;51.222;6.480;2024-01-30T06:55:56;0.50;;;0.50;;
36497;SDS011;22513;51.222;6.480;2024-01-30T06:58:22;0.77;;;0.75;;
36497;SDS011;22513;51.222;6.480;2024-01-30T07:00:48;0.80;;;0.80;;
36497;SDS011;22513;51.222;6.480;2024-01-30T07:03:13;0.70;;;0.70;;
36497;SDS011;22513;51.222;6.480;2024-01-30T07:05:39;0.82;;;0.82;;
36497;SDS011;22513;51.222;6.480;2024-01-30T07:08:05;0.60;;;0.60;;
36497;SDS011;22513;51.222;6.480;2024-01-30T07:10:31;0.80;;;0.80;;
36497;SDS011;22513;51.222;6.480;2024-01-30T07:12:56;0.60;;;0.60;;
36497;SDS011;22513;51.222;6.480;2024-01-30T07:15:22;0.70;;;0.70;;
36497;SDS011;22513;51.222;6.480;2024-01-30T07:17:47;0.70;;;0.70;;
36497;SDS011;22513;51.222;6.480;2024-01-30T07:20:13;0.88;;;0.88;;
36497;SDS011;22513;51.222;6.480;2024-01-30T07:22:39;0.80;;;0.80;;
36497;SDS011;22513;51.222;6.480;2024-01-30T07:25:05;0.60;;;0.60;;
36497;SDS011;22513;51.222;6.480;2024-01-30T07:27:31;0.65;;;0.60;;
36497;SDS011;22513;51.222;6.480;2024-01-30T07:29:57;0.60;;;0.60;;
36497;SDS011;22513;51.222;6.480;2024-01-30T07:32:23;0.60;;;0.60;;
36497;SDS011;22513;51.222;6.480;2024-01-30T07:34:48;0.75;;;0.70;;
36497;SDS011;22513;51.222;6.480;2024-01-30T07:37:14;0.98;;;0.77;;
36497;SDS011;22513;51.222;6.480;2024-01-30T07:39:41;0.60;;;0.60;;
36497;SDS011;22513;51.222;6.480;2024-01-30T07:42:07;0.70;;;0.70;;
36497;SDS011;22513;51.222;6.480;2024-01-30T07:44:33;0.60;;;0.60;;
36497;SDS011;22513;51.222;6.480;2024-01-30T07:46:59;0.70;;;0.70;;
36497;SDS011;22513;51.222;6.480;2024-01-30T07:49:25;0.50;;;0.50;;
36497;SDS011;22513;51.222;6.480;2024-01-30T07:51:50;0.57;;;0.57;;
36497;SDS011;22513;51.222;6.480;2024-01-30T07:54:16;0.68;;;0.68;;
36497;SDS011;22513;51.222;6.480;2024-01-30T07:56:42;0.70;;;0.70;;
36497;SDS011;22513;51.222;6.480;2024-01-30T07:59:11;0.60;;;0.60;;
36497;SDS011;22513;51.222;6.480;2024-01-30T08:01:37;0.70;;;0.70;;
36497;SDS011;22513;51.222;6.480;2024-01-30T08:04:03;0.70;;;0.70;;
36497;SDS011;22513;51.222;6.480;2024-01-30T08:06:29;0.73;;;0.73;;
36497;SDS011;22513;51.222;6.480;2024-01-30T08:08:54;1.83;;;1.50;;
36497;SDS011;22513;51.222;6.480;2024-01-30T08:11:20;2.05;;;1.60;;
36497;SDS011;22513;51.222;6.480;2024-01-30T08:13:51;3.58;;;1.70;;
36497;SDS011;22513;51.222;6.480;2024-01-30T08:16:17;3.40;;;1.35;;
36497;SDS011;22513;51.222;6.480;2024-01-30T08:18:43;2.13;;;1.50;;
36497;SDS011;22513;51.222;6.480;2024-01-30T08:21:08;4.35;;;1.65;;
36497;SDS011;22513;51.222;6.480;2024-01-30T08:23:34;2.80;;;1.30;;
36497;SDS011;22513;51.222;6.480;2024-01-30T08:26:00;2.85;;;1.38;;
36497;SDS011;22513;51.222;6.480;2024-01-30T08:28:25;2.75;;;1.38;;
36497;SDS011;22513;51.222;6.480;2024-01-30T08:30:51;1.40;;;1.30;;
36497;SDS011;22513;51.222;6.480;2024-01-30T08:33:17;2.78;;;1.27;;
36497;SDS011;22513;51.222;6.480;2024-01-30T08:35:43;2.03;;;1.23;;
36497;SDS011;22513;51.222;6.480;2024-01-30T08:38:08;2.55;;;1.08;;
36497;SDS011;22513;51.222;6.480;2024-01-30T08:40:34;1.23;;;1.13;;
36497;SDS011;22513;51.222;6.480;2024-01-30T08:43:00;2.13;;;1.30;;
36497;SDS011;22513;51.222;6.480;2024-01-30T08:45:25;2.03;;;1.20;;
36497;SDS011;22513;51.222;6.480;2024-01-30T08:47:51;1.70;;;1.17;;
36497;SDS011;22513;51.222;6.480;2024-01-30T08:50:17;1.52;;;1.17;;
36497;SDS011;22513;51.222;6.480;2024-01-30T08:52:43;1.00;;;0.90;;
36497;SDS011;22513;51.222;6.480;2024-01-30T08:55:09;2.38;;;1.23;;
36497;SDS011;22513;51.222;6.480;2024-01-30T08:57:35;1.38;;;1.13;;
36497;SDS011;22513;51.222;6.480;2024-01-30T09:00:01;1.88;;;1.15;;
36497;SDS011;22513;51.222;6.480;2024-01-30T09:04:56;1.95;;;0.98;;
36497;SDS011;22513;51.222;6.480;2024-01-30T09:07:21;1.67;;;1.15;;
36497;SDS011;22513;51.222;6.480;2024-01-30T09:09:47;1.10;;;1.00;;
36497;SDS011;22513;51.222;6.480;2024-01-30T09:12:13;1.13;;;0.98;;
36497;SDS011;22513;51.222;6.480;2024-01-30T09:14:39;0.80;;;0.77;;
36497;SDS011;22513;51.222;6.480;2024-01-30T09:17:06;0.80;;;0.80;;
36497;SDS011;22513;51.222;6.480;2024-01-30T09:19:32;1.10;;;1.00;;
36497;SDS011;22513;51.222;6.480;2024-01-30T09:21:57;0.88;;;0.82;;
36497;SDS011;22513;51.222;6.480;2024-01-30T09:24:23;1.10;;;0.90;;
36497;SDS011;22513;51.222;6.480;2024-01-30T09:26:49;0.70;;;0.70;;
36497;SDS011;22513;51.222;6.480;2024-01-30T09:29:14;1.10;;;0.80;;
36497;SDS011;22513;51.222;6.480;2024-01-30T09:31:42;0.70;;;0.70;;
36497;SDS011;22513;51.222;6.480;2024-01-30T09:34:09;0.95;;;0.93;;
36497;SDS011;22513;51.222;6.480;2024-01-30T09:36:35;0.63;;;0.60;;
36497;SDS011;22513;51.222;6.480;2024-01-30T09:39:01;0.95;;;0.90;;
36497;SDS011;22513;51.222;6.480;2024-01-30T09:41:27;0.93;;;0.80;;
36497;SDS011;22513;51.222;6.480;2024-01-30T09:43:54;0.85;;;0.82;;
36497;SDS011;22513;51.222;6.480;2024-01-30T09:46:21;0.70;;;0.70;;
36497;SDS011;22513;51.222;6.480;2024-01-30T09:48:52;0.85;;;0.85;;
36497;SDS011;22513;51.222;6.480;2024-01-30T09:51:20;0.98;;;0.70;;
36497;SDS011;22513;51.222;6.480;2024-01-30T09:53:47;2.10;;;0.90;;
36497;SDS011;22513;51.222;6.480;2024-01-30T09:56:14;0.95;;;0.90;;
36497;SDS011;22513;51.222;6.480;2024-01-30T09:58:40;0.82;;;0.70;;
36497;SDS011;22513;51.222;6.480;2024-01-30T10:01:07;0.70;;;0.70;;
36497;SDS011;22513;51.222;6.480;2024-01-30T10:03:32;0.68;;;0.68;;
36497;SDS011;22513;51.222;6.480;2024-01-30T10:05:58;0.65;;;0.65;;
36497;SDS011;22513;51.222;6.480;2024-01-30T10:08:25;0.70;;;0.70;;
36497;SDS011;22513;51.222;6.480;2024-01-30T10:10:51;0.60;;;0.60;;
36497;SDS011;22513;51.222;6.480;2024-01-30T10:13:17;0.80;;;0.80;;
36497;SDS011;22513;51.222;6.480;2024-01-30T10:15:43;0.70;;;0.70;;
36497;SDS011;22513;51.222;6.480;2024-01-30T10:18:09;0.60;;;0.60;;
36497;SDS011;22513;51.222;6.480;2024-01-30T10:20:36;0.80;;;0.80;;
36497;SDS011;22513;51.222;6.480;2024-01-30T10:23:02;0.55;;;0.55;;
36497;SDS011;22513;51.222;6.480;2024-01-30T10:25:29;0.70;;;0.70;;
36497;SDS011;22513;51.222;6.480;2024-01-30T10:27:56;0.60;;;0.60;;
36497;SDS011;22513;51.222;6.480;2024-01-30T10:30:23;0.70;;;0.70;;
36497;SDS011;22513;51.222;6.480;2024-01-30T10:32:49;0.73;;;0.73;;
36497;SDS011;22513;51.222;6.480;2024-01-30T10:35:15;0.65;;;0.65;;
36497;SDS011;22513;51.222;6.480;2024-01-30T10:37:44;0.80;;;0.80;;
36497;SDS011;22513;51.222;6.480;2024-01-30T10:40:14;0.70;;;0.70;;
36497;SDS011;22513;51.222;6.480;2024-01-30T10:42:43;1.10;;;0.80;;
36497;SDS011;22513;51.222;6.480;2024-01-30T10:45:10;0.60;;;0.60;;
36497;SDS011;22513;51.222;6.480;2024-01-30T10:47:44;0.70;;;0.70;;
36497;SDS011;22513;51.222;6.480;2024-01-30T10:50:15;0.65;;;0.63;;
36497;SDS011;22513;51.222;6.480;2024-01-30T10:52:41;0.63;;;0.63;;
36497;SDS011;22513;51.222;6.480;2024-01-30T10:55:07;0.70;;;0.70;;
36497;SDS011;22513;51.222;6.480;2024-01-30T10:57:36;0.63;;;0.60;;
36497;SDS011;22513;51.222;6.480;2024-01-30T11:00:07;0.50;;;0.50;;
36497;SDS011;22513;51.222;6.480;2024-01-30T11:02:35;0.60;;;0.60;;
36497;SDS011;22513;51.222;6.480;2024-01-30T11:05:06;0.60;;;0.60;;
36497;SDS011;22513;51.222;6.480;2024-01-30T11:07:33;0.60;;;0.60;;
36497;SDS011;22513;51.222;6.480;2024-01-30T11:10:00;0.68;;;0.68;;
36497;SDS011;22513;51.222;6.480;2024-01-30T11:12:32;0.70;;;0.70;;
36497;SDS011;22513;51.222;6.480;2024-01-30T11:15:05;0.77;;;0.77;;
36497;SDS011;22513;51.222;6.480;2024-01-30T11:17:39;1.15;;;0.80;;
36497;SDS011;22513;51.222;6.480;2024-01-30T11:20:21;0.55;;;0.55;;
36497;SDS011;22513;51.222;6.480;2024-01-30T11:22:49;0.80;;;0.63;;
36497;SDS011;22513;51.222;6.480;2024-01-30T11:25:17;0.80;;;0.80;;
36497;SDS011;22513;51.222;6.480;2024-01-30T11:27:45;0.63;;;0.63;;
36497;SDS011;22513;51.222;6.480;2024-01-30T11:30:20;0.68;;;0.68;;
36497;SDS011;22513;51.222;6.480;2024-01-30T11:35:30;0.50;;;0.50;;
36497;SDS011;22513;51.222;6.480;2024-01-30T11:38:00;0.65;;;0.65;;
36497;SDS011;22513;51.222;6.480;2024-01-30T11:40:30;0.85;;;0.60;;
36497;SDS011;22513;51.222;6.480;2024-01-30T11:42:56;0.80;;;0.80;;
36497;SDS011;22513;51.222;6.480;2024-01-30T11:45:24;0.60;;;0.60;;
36497;SDS011;22513;51.222;6.480;2024-01-30T11:47:49;0.70;;;0.70;;
36497;SDS011;22513;51.222;6.480;2024-01-30T11:50:15;0.60;;;0.60;;
36497;SDS011;22513;51.222;6.480;2024-01-30T11:52:41;0.50;;;0.50;;
36497;SDS011;22513;51.222;6.480;2024-01-30T11:55:08;0.50;;;0.50;;
36497;SDS011;22513;51.222;6.480;2024-01-30T11:57:35;0.65;;;0.65;;
36497;SDS011;22513;51.222;6.480;2024-01-30T12:00:02;0.50;;;0.50;;
36497;SDS011;22513;51.222;6.480;2024-01-30T12:02:35;0.60;;;0.60;;
36497;SDS011;22513;51.222;6.480;2024-01-30T12:05:14;0.70;;;0.70;;
36497;SDS011;22513;51.222;6.480;2024-01-30T12:07:39;0.43;;;0.43;;
36497;SDS011;22513;51.222;6.480;2024-01-30T12:10:05;0.63;;;0.63;;
36497;SDS011;22513;51.222;6.480;2024-01-30T12:12:34;0.60;;;0.60;;
36497;SDS011;22513;51.222;6.480;2024-01-30T12:15:00;0.50;;;0.50;;
36497;SDS011;22513;51.222;6.480;2024-01-30T12:17:33;0.50;;;0.50;;
36497;SDS011;22513;51.222;6.480;2024-01-30T12:22:38;0.60;;;0.60;;
36497;SDS011;22513;51.222;6.480;2024-01-30T12:25:08;0.60;;;0.60;;
36497;SDS011;22513;51.222;6.480;2024-01-30T12:27:36;0.40;;;0.40;;
36497;SDS011;22513;51.222;6.480;2024-01-30T12:30:09;0.60;;;0.60;;
36497;SDS011;22513;51.222;6.480;2024-01-30T12:32:36;0.60;;;0.60;;
36497;SDS011;22513;51.222;6.480;2024-01-30T12:35:02;0.70;;;0.70;;
36497;SDS011;22513;51.222;6.480;2024-01-30T12:37:29;0.50;;;0.50;;
36497;SDS011;22513;51.222;6.480;2024-01-30T12:39:55;0.50;;;0.50;;
36497;SDS011;22513;51.222;6.480;2024-01-30T12:42:21;0.80;;;0.80;;
36497;SDS011;22513;51.222;6.480;2024-01-30T12:44:47;0.50;;;0.50;;
36497;SDS011;22513;51.222;6.480;2024-01-30T12:47:13;0.50;;;0.50;;
36497;SDS011;22513;51.222;6.480;2024-01-30T12:49:41;0.40;;;0.40;;
36497;SDS011;22513;51.222;6.480;2024-01-30T12:52:08;0.40;;;0.40;;
36497;SDS011;22513;51.222;6.480;2024-01-30T12:54:33;0.55;;;0.55;;
36497;SDS011;22513;51.222;6.480;2024-01-30T12:56:59;0.70;;;0.60;;
36497;SDS011;22513;51.222;6.480;2024-01-30T12:59:25;0.60;;;0.60;;
36497;SDS011;22513;51.222;6.480;2024-01-30T13:01:50;0.60;;;0.60;;
36497;SDS011;22513;51.222;6.480;2024-01-30T13:04:16;0.50;;;0.50;;
36497;SDS011;22513;51.222;6.480;2024-01-30T13:06:41;0.50;;;0.50;;
36497;SDS011;22513;51.222;6.480;2024-01-30T13:09:07;0.60;;;0.60;;
36497;SDS011;22513;51.222;6.480;2024-01-30T13:11:33;0.45;;;0.45;;
36497;SDS011;22513;51.222;6.480;2024-01-30T13:13:59;0.70;;;0.70;;
36497;SDS011;22513;51.222;6.480;2024-01-30T13:16:24;0.40;;;0.40;;
36497;SDS011;22513;51.222;6.480;2024-01-30T13:18:50;0.45;;;0.45;;
36497;SDS011;22513;51.222;6.480;2024-01-30T13:21:16;0.40;;;0.40;;
36497;SDS011;22513;51.222;6.480;2024-01-30T13:23:42;0.65;;;0.65;;
36497;SDS011;22513;51.222;6.480;2024-01-30T13:26:08;0.60;;;0.60;;
36497;SDS011;22513;51.222;6.480;2024-01-30T13:28:34;0.50;;;0.50;;
36497;SDS011;22513;51.222;6.480;2024-01-30T13:30:59;0.50;;;0.50;;
36497;SDS011;22513;51.222;6.480;2024-01-30T13:33:26;0.40;;;0.40;;
36497;SDS011;22513;51.222;6.480;2024-01-30T13:35:51;0.65;;;0.65;;
36497;SDS011;22513;51.222;6.480;2024-01-30T13:38:17;0.57;;;0.57;;
36497;SDS011;22513;51.222;6.480;2024-01-30T13:40:43;0.47;;;0.47;;
36497;SDS011;22513;51.222;6.480;2024-01-30T13:43:08;0.55;;;0.55;;
36497;SDS011;22513;51.222;6.480;2024-01-30T13:45:34;0.50;;;0.50;;
36497;SDS011;22513;51.222;6.480;2024-01-30T13:48:00;0.40;;;0.40;;
36497;SDS011;22513;51.222;6.480;2024-01-30T13:50:26;0.40;;;0.40;;
36497;SDS011;22513;51.222;6.480;2024-01-30T13:52:51;0.60;;;0.60;;
36497;SDS011;22513;51.222;6.480;2024-01-30T13:55:17;0.45;;;0.45;;
36497;SDS011;22513;51.222;6.480;2024-01-30T13:57:42;0.55;;;0.55;;
36497;SDS011;22513;51.222;6.480;2024-01-30T14:00:08;0.50;;;0.50;;
36497;SDS011;22513;51.222;6.480;2024-01-30T14:02:34;0.43;;;0.43;;
36497;SDS011;22513;51.222;6.480;2024-01-30T14:05:00;0.45;;;0.45;;
36497;SDS011;22513;51.222;6.480;2024-01-30T14:07:25;0.60;;;0.60;;
36497;SDS011;22513;51.222;6.480;2024-01-30T14:09:51;0.60;;;0.60;;
36497;SDS011;22513;51.222;6.480;2024-01-30T14:12:17;0.40;;;0.40;;
36497;SDS011;22513;51.222;6.480;2024-01-30T14:14:42;0.50;;;0.50;;
36497;SDS011;22513;51.222;6.480;2024-01-30T14:17:08;0.50;;;0.50;;
36497;SDS011;22513;51.222;6.480;2024-01-30T14:19:34;0.85;;;0.52;;
36497;SDS011;22513;51.222;6.480;2024-01-30T14:22:00;0.45;;;0.45;;
36497;SDS011;22513;51.222;6.480;2024-01-30T14:24:26;0.47;;;0.47;;
36497;SDS011;22513;51.222;6.480;2024-01-30T14:26:52;0.50;;;0.50;;
36497;SDS011;22513;51.222;6.480;2024-01-30T14:29:18;0.52;;;0.52;;
36497;SDS011;22513;51.222;6.480;2024-01-30T14:31:44;0.50;;;0.50;;
36497;SDS011;22513;51.222;6.480;2024-01-30T14:34:09;0.60;;;0.60;;
36497;SDS011;22513;51.222;6.480;2024-01-30T14:36:36;0.52;;;0.52;;
36497;SDS011;22513;51.222;6.480;2024-01-30T14:39:02;0.60;;;0.60;;
36497;SDS011;22513;51.222;6.480;2024-01-30T14:41:28;0.65;;;0.65;;
36497;SDS011;22513;51.222;6.480;2024-01-30T14:43:54;0.68;;;0.68;;
36497;SDS011;22513;51.222;6.480;2024-01-30T14:46:20;0.50;;;0.50;;
36497;SDS011;22513;51.222;6.480;2024-01-30T14:48:46;0.55;;;0.55;;
36497;SDS011;22513;51.222;6.480;2024-01-30T14:51:12;0.90;;;0.90;;
36497;SDS011;22513;51.222;6.480;2024-01-30T14:53:38;0.40;;;0.40;;